Aérodrome :
LOGIN :

S'inscrire | Disclaimer

   EN    FR    IT 

 










Légende :    VFR   VFR Marginal   IFR   IFR Intensif   IFR Très Intensif
Visi : 
Plafond : 
>= 8 km
>= 3000ft
5 à 8 km
1000 à 3000 ft
1500m à 5 km
500 à 1000 ft
800 à 1500m
200 à 500 ft
< 800m
< 200 ft
Symboles :   Orages  Brouillard  Fortes neiges  Fortes précipitations  Vent > 20 kt
SIGMETs :   Divers  Orages  Givrage  Turbulence  Onde Orograph.  Cendres Volcan.







- Altitude de l'aérodrome : 412 ft
- Code IATA : ORE
- Voir les cartes d'approche


LFOJ - Orleans

DERNIER METAR :
  • 211830Z AUTO 04005KT 360V070 9999 FEW018 OVC130 16/13 Q1018 TEMPO SCT035TCU

METARs EXPIRÉS :
  • 211800Z AUTO 04009KT 010V070 9999 -RA FEW012/// SCT025/// BKN040/// ///TCU 16/12 Q1018 NOSIG
  • 211730Z AUTO 05010KT 9999 FEW039/// SCT100/// ///CB 16/12 Q1018 BECMG 33010KT
  • 211700Z AUTO 06009KT 9999 ///CB 16/11 Q1018 BECMG 33010KT
  • 211630Z AUTO 36010KT 320V070 9999 FEW034/// SCT110/// ///TCU 17/10 Q1018 NOSIG
  • 211600Z AUTO 30009KT 270V330 9999 ///CB 19/12 Q1017 NOSIG

TAF TAF LFOJ
Valide du 21 à 09h jusqu'au 22 à 09h UTC


210800Z 2109/2209 33010KT 9999 BKN035
PROB40
TEMPO 2112/2122 5000 -SHRA SCT035TCU
BECMG 2200/2202 VRB03KT 3000 BR
PROB40 2202/2206 0500 FG VV///
BECMG 2206/2208 CAVOK
Pas de NOTAMs connus pour ce terrain.



MET'MAP, la Météo Aéronautique d'un coup d'oeil ! - Copyright ORBIFLY Décembre 2007 - Disclaimer

ORBIFLY MET'MAP TEAM :

Programmation & Développement : Alexandra Zaïnal
Conception & Développement : Baudouin d'Aumeries
Co-Programmation & Développement : Marc-Olivier Méhu
Soutien technique & logistique : Manuel Goepfert

Contact : metmap@orbifly.com




SOURCES & CREDITS :

   NOAA